Time;durP1;ratioP1;P1;durP2;ratioP2;P2;SDS_P1;SDS_P2;PMS_P1;PMS_P2;Temp;Humidity;BMP_temperature;BMP_pressure;BME280_temperature;BME280_humidity;BME280_pressure;Samples;Min_cycle;Max_cycle;Signal;HPM_P1;HPM_P2
2021/03/27 00:00:43;;;;;;;;;;;11.60;99.90;;;;;;5091770;28;20385;-66
2021/03/27 00:03:17;;;;;;;;;;;11.60;99.90;;;;;;5091658;28;19935;-65
2021/03/27 00:05:47;;;;;;;;;;;11.50;99.90;;;;;;5091851;28;19931;-66
2021/03/27 00:08:16;;;;;;;;;;;11.40;99.90;;;;;;5091775;28;19927;-67
2021/03/27 00:10:46;;;;;;;;;;;11.30;99.90;;;;;;5091752;28;19924;-65
2021/03/27 00:13:18;;;;;;;;;;;10.90;99.90;;;;;;5092017;28;19924;-66
2021/03/27 00:15:50;;;;;;;;;;;10.30;99.90;;;;;;5091848;28;19924;-66
2021/03/27 00:18:20;;;;;;;;;;;9.60;99.90;;;;;;5091982;28;20388;-69
2021/03/27 00:20:49;;;;;;;;;;;9.50;99.90;;;;;;5091308;28;19928;-66
2021/03/27 00:23:17;;;;;;;;;;;9.40;99.90;;;;;;5091644;28;19924;-67
2021/03/27 00:25:47;;;;;;;;;;;9.40;99.90;;;;;;5091899;28;19924;-68
2021/03/27 00:28:16;;;;;;;;;;;9.20;99.90;;;;;;5091700;28;20514;-66
2021/03/27 00:30:47;;;;;;;;;;;9.10;99.90;;;;;;5091596;28;19931;-66
2021/03/27 00:33:13;;;;;;;;;;;8.90;99.90;;;;;;5094395;28;20468;-66
2021/03/27 00:35:42;;;;;;;;;;;8.70;99.90;;;;;;5095388;28;19970;-67
2021/03/27 00:38:12;;;;;;;;;;;8.60;99.90;;;;;;5095483;28;19924;-66
2021/03/27 00:40:40;;;;;;;;;;;8.40;99.90;;;;;;5095423;28;19924;-67
2021/03/27 00:43:09;;;;;;;;;;;8.40;99.90;;;;;;5094827;28;19931;-66
2021/03/27 00:45:39;;;;;;;;;;;8.30;99.90;;;;;;5094798;28;19924;-66
2021/03/27 00:48:07;;;;;;;;;;;8.00;99.90;;;;;;5093988;28;19931;-67
2021/03/27 00:50:36;;;;;;;;;;;7.80;99.90;;;;;;5095134;28;19973;-67
2021/03/27 00:53:12;;;;;;;;;;;7.50;99.90;;;;;;5094899;28;19924;-65
2021/03/27 00:55:41;;;;;;;;;;;7.20;99.90;;;;;;5094917;28;19931;-67
2021/03/27 00:58:12;;;;;;;;;;;7.20;99.90;;;;;;5094963;28;19925;-65
2021/03/27 01:00:40;;;;;;;;;;;7.10;99.90;;;;;;5094870;28;19947;-66
2021/03/27 01:03:08;;;;;;;;;;;6.90;99.90;;;;;;5094565;28;19929;-67
2021/03/27 01:05:35;;;;;;;;;;;6.80;99.90;;;;;;5094841;28;20254;-66
2021/03/27 01:08:02;;;;;;;;;;;6.70;99.90;;;;;;5094905;28;20288;-66
2021/03/27 01:10:31;;;;;;;;;;;6.60;99.90;;;;;;5094371;28;19924;-66
2021/03/27 01:13:00;;;;;;;;;;;6.40;99.90;;;;;;5094675;28;19928;-65
2021/03/27 01:15:28;;;;;;;;;;;6.10;99.90;;;;;;5094485;28;19924;-65
2021/03/27 01:17:57;;;;;;;;;;;6.10;99.90;;;;;;5094558;28;19924;-66
2021/03/27 01:20:25;;;;;;;;;;;6.00;99.90;;;;;;5094630;28;19928;-66
2021/03/27 01:22:51;;;;;;;;;;;5.90;99.90;;;;;;5093661;28;19931;-67
2021/03/27 01:25:20;;;;;;;;;;;5.90;99.90;;;;;;5094190;28;19974;-65
2021/03/27 01:27:49;;;;;;;;;;;5.90;99.90;;;;;;5094234;28;20343;-68
2021/03/27 01:30:20;;;;;;;;;;;5.90;99.90;;;;;;5094479;28;19924;-65
2021/03/27 01:32:49;;;;;;;;;;;5.90;99.90;;;;;;5093808;28;19977;-66
2021/03/27 01:35:19;;;;;;;;;;;5.80;99.90;;;;;;5094096;28;19938;-66
2021/03/27 01:37:46;;;;;;;;;;;5.80;99.90;;;;;;5093935;28;19994;-67
2021/03/27 01:40:18;;;;;;;;;;;5.80;99.90;;;;;;5093907;28;19939;-68
2021/03/27 01:42:53;;;;;;;;;;;5.80;99.90;;;;;;5093704;28;19924;-65
2021/03/27 01:45:30;;;;;;;;;;;5.80;99.90;;;;;;5093725;28;19930;-66
2021/03/27 01:48:00;;;;;;;;;;;5.70;99.90;;;;;;5094119;28;20389;-65
2021/03/27 01:50:34;;;;;;;;;;;5.70;99.90;;;;;;5093916;28;19935;-65
2021/03/27 01:53:08;;;;;;;;;;;5.70;99.90;;;;;;5093851;28;19938;-65
2021/03/27 01:55:47;;;;;;;;;;;5.60;99.90;;;;;;5093686;28;19931;-65
2021/03/27 01:58:15;;;;;;;;;;;5.60;99.90;;;;;;5093826;28;19928;-66
2021/03/27 02:00:45;;;;;;;;;;;5.50;99.90;;;;;;5093481;28;19924;-65
2021/03/27 02:03:13;;;;;;;;;;;5.50;99.90;;;;;;5093212;28;20334;-66
2021/03/27 02:05:41;;;;;;;;;;;5.50;99.90;;;;;;5092729;28;19973;-68
2021/03/27 02:08:13;;;;;;;;;;;5.50;99.90;;;;;;5093016;28;19924;-65
2021/03/27 02:10:41;;;;;;;;;;;5.50;99.90;;;;;;5093616;28;19924;-65
2021/03/27 02:13:11;;;;;;;;;;;5.50;99.90;;;;;;5092872;28;19924;-69
2021/03/27 02:15:42;;;;;;;;;;;5.50;99.90;;;;;;5093702;28;19924;-65
2021/03/27 02:18:18;;;;;;;;;;;5.40;99.90;;;;;;5093515;28;19950;-66
2021/03/27 02:21:11;;;;;;;;;;;5.40;99.90;;;;;;5093405;28;19932;-68
2021/03/27 02:23:48;;;;;;;;;;;5.40;99.90;;;;;;5092309;28;19931;-65
2021/03/27 02:26:35;;;;;;;;;;;5.30;99.90;;;;;;5092698;28;20350;-65
2021/03/27 02:29:27;;;;;;;;;;;5.20;99.90;;;;;;5093500;28;19924;-65
2021/03/27 02:31:56;;;;;;;;;;;5.20;99.90;;;;;;5093118;28;19928;-65
2021/03/27 02:34:24;;;;;;;;;;;5.30;99.90;;;;;;5093103;28;19931;-65
2021/03/27 02:36:57;;;;;;;;;;;5.20;99.90;;;;;;5093231;28;19928;-65
2021/03/27 02:39:26;;;;;;;;;;;5.20;99.90;;;;;;5092918;28;19970;-65
2021/03/27 02:42:03;;;;;;;;;;;5.20;99.90;;;;;;5091843;28;19931;-66
2021/03/27 02:44:32;;;;;;;;;;;5.20;99.90;;;;;;5091650;28;19938;-66
2021/03/27 02:47:05;;;;;;;;;;;5.10;99.90;;;;;;5091890;28;19924;-65
2021/03/27 02:49:33;;;;;;;;;;;5.10;99.90;;;;;;5092785;28;19931;-67
2021/03/27 02:52:04;;;;;;;;;;;5.10;99.90;;;;;;5091150;28;20411;-67
2021/03/27 02:54:34;;;;;;;;;;;5.10;99.90;;;;;;5091381;28;19927;-65
2021/03/27 02:57:08;;;;;;;;;;;5.10;99.90;;;;;;5092618;28;19928;-66
2021/03/27 02:59:47;;;;;;;;;;;5.10;99.90;;;;;;5092844;28;19974;-66
2021/03/27 03:02:18;;;;;;;;;;;5.10;99.90;;;;;;5092243;28;19924;-66
2021/03/27 03:04:48;;;;;;;;;;;5.10;99.90;;;;;;5092647;28;19924;-65
2021/03/27 03:07:20;;;;;;;;;;;5.00;99.90;;;;;;5092336;28;19924;-67
2021/03/27 03:09:50;;;;;;;;;;;5.00;99.90;;;;;;5092753;28;19932;-66
2021/03/27 03:12:19;;;;;;;;;;;5.00;99.90;;;;;;5092395;28;19924;-66
2021/03/27 03:14:55;;;;;;;;;;;5.00;99.90;;;;;;5092441;28;19978;-66
2021/03/27 03:17:26;;;;;;;;;;;5.00;99.90;;;;;;5092485;28;20278;-67
2021/03/27 03:19:54;;;;;;;;;;;5.00;99.90;;;;;;5092001;28;19925;-66
2021/03/27 03:22:24;;;;;;;;;;;5.10;99.90;;;;;;5092124;28;19935;-65
2021/03/27 03:24:52;;;;;;;;;;;5.10;99.90;;;;;;5092481;28;19924;-67
2021/03/27 03:27:22;;;;;;;;;;;5.10;99.90;;;;;;5092442;28;19928;-66
2021/03/27 03:29:51;;;;;;;;;;;5.10;99.90;;;;;;5092258;28;19931;-66
2021/03/27 03:32:21;;;;;;;;;;;5.10;99.90;;;;;;5091844;28;19939;-68
2021/03/27 03:34:57;;;;;;;;;;;5.10;99.90;;;;;;5092402;28;20290;-69
2021/03/27 03:37:28;;;;;;;;;;;5.10;99.90;;;;;;5092370;28;20338;-67
2021/03/27 03:40:04;;;;;;;;;;;5.10;99.90;;;;;;5092327;28;20363;-68
2021/03/27 03:42:49;;;;;;;;;;;5.10;99.90;;;;;;5091510;28;19931;-67
2021/03/27 03:45:20;;;;;;;;;;;5.10;99.90;;;;;;5092217;28;20396;-70
2021/03/27 03:47:48;;;;;;;;;;;5.10;99.90;;;;;;5092211;28;20226;-67
2021/03/27 03:50:22;;;;;;;;;;;5.00;99.90;;;;;;5092072;28;19924;-67
2021/03/27 03:53:02;;;;;;;;;;;5.00;99.90;;;;;;5091751;28;19924;-69
2021/03/27 03:55:33;;;;;;;;;;;5.00;99.90;;;;;;5092749;28;19931;-67
2021/03/27 03:58:11;;;;;;;;;;;4.90;99.90;;;;;;5092186;28;19928;-66
2021/03/27 04:00:40;;;;;;;;;;;4.90;99.90;;;;;;5092481;28;19931;-67
2021/03/27 04:03:12;;;;;;;;;;;4.90;99.90;;;;;;5091747;28;19924;-67
2021/03/27 04:05:41;;;;;;;;;;;4.90;99.90;;;;;;5091920;28;19924;-67
2021/03/27 04:08:10;;;;;;;;;;;4.90;99.90;;;;;;5094940;28;20392;-67
2021/03/27 04:10:37;;;;;;;;;;;4.80;99.90;;;;;;5095563;28;20494;-66
2021/03/27 04:13:06;;;;;;;;;;;4.80;99.90;;;;;;5095736;28;19924;-67
2021/03/27 04:15:35;;;;;;;;;;;4.80;99.90;;;;;;5095607;28;19932;-69
2021/03/27 04:18:05;;;;;;;;;;;4.70;99.90;;;;;;5095675;28;19924;-67
2021/03/27 04:20:42;;;;;;;;;;;4.70;99.90;;;;;;5095773;28;19924;-66
2021/03/27 04:23:12;;;;;;;;;;;4.70;99.90;;;;;;5095502;28;19931;-66
2021/03/27 04:25:41;;;;;;;;;;;4.70;99.90;;;;;;5095652;28;19924;-67
2021/03/27 04:28:11;;;;;;;;;;;4.80;99.90;;;;;;5097315;28;19924;-66
2021/03/27 04:30:47;;;;;;;;;;;4.90;99.90;;;;;;5094344;28;19931;-66
2021/03/27 04:33:16;;;;;;;;;;;4.90;99.90;;;;;;5095465;28;19972;-66
2021/03/27 04:35:48;;;;;;;;;;;4.90;99.90;;;;;;5095730;28;19924;-66
2021/03/27 04:38:17;;;;;;;;;;;4.90;99.90;;;;;;5095444;28;19924;-65
2021/03/27 04:40:46;;;;;;;;;;;4.90;99.90;;;;;;5095479;28;20380;-67
2021/03/27 04:43:16;;;;;;;;;;;4.90;99.90;;;;;;5094995;28;19924;-67
2021/03/27 04:45:44;;;;;;;;;;;4.90;99.90;;;;;;5095525;28;19924;-66
2021/03/27 04:48:17;;;;;;;;;;;4.90;99.90;;;;;;5095151;28;20007;-66
2021/03/27 04:50:46;;;;;;;;;;;4.90;99.90;;;;;;5095311;28;20277;-69
2021/03/27 04:53:15;;;;;;;;;;;4.90;99.90;;;;;;5094987;28;20408;-66
2021/03/27 04:55:44;;;;;;;;;;;4.90;99.90;;;;;;5094764;28;19924;-66
2021/03/27 04:58:25;;;;;;;;;;;4.90;99.90;;;;;;5095270;28;19924;-66
2021/03/27 05:00:55;;;;;;;;;;;4.90;99.90;;;;;;5092065;28;19928;-67
2021/03/27 05:03:26;;;;;;;;;;;4.90;99.90;;;;;;5094786;28;19931;-66
2021/03/27 05:05:55;;;;;;;;;;;4.80;99.90;;;;;;5094665;28;19993;-67
2021/03/27 05:08:23;;;;;;;;;;;4.90;99.90;;;;;;5095243;28;19932;-66
2021/03/27 05:10:53;;;;;;;;;;;4.90;99.90;;;;;;5094532;28;19924;-66
2021/03/27 05:13:25;;;;;;;;;;;4.90;99.90;;;;;;5094983;28;19928;-66
2021/03/27 05:15:52;;;;;;;;;;;4.90;99.90;;;;;;5094697;28;19924;-66
2021/03/27 05:18:28;;;;;;;;;;;5.00;99.90;;;;;;5093962;28;19924;-68
2021/03/27 05:20:57;;;;;;;;;;;5.00;99.90;;;;;;5094731;28;20323;-67
2021/03/27 05:23:30;;;;;;;;;;;5.00;99.90;;;;;;5094112;28;19924;-66
2021/03/27 05:26:01;;;;;;;;;;;5.00;99.90;;;;;;5094633;28;19924;-68
2021/03/27 05:28:40;;;;;;;;;;;5.10;99.90;;;;;;5094334;28;20395;-66
2021/03/27 05:31:11;;;;;;;;;;;5.10;99.90;;;;;;5094117;28;20300;-67
2021/03/27 05:33:42;;;;;;;;;;;5.10;99.90;;;;;;5094049;28;19924;-66
2021/03/27 05:36:27;;;;;;;;;;;5.10;99.90;;;;;;5094572;28;19969;-69
2021/03/27 05:38:56;;;;;;;;;;;5.10;99.90;;;;;;5094077;28;19924;-66
2021/03/27 05:41:37;;;;;;;;;;;5.10;99.90;;;;;;5093647;28;19947;-68
2021/03/27 05:44:22;;;;;;;;;;;5.20;99.90;;;;;;5081097;28;19924;-67
2021/03/27 05:47:12;;;;;;;;;;;5.20;99.90;;;;;;5094173;28;19931;-66
2021/03/27 05:49:46;;;;;;;;;;;5.20;99.90;;;;;;5078183;28;19924;-68
2021/03/27 05:52:23;;;;;;;;;;;5.30;99.90;;;;;;5091184;28;19932;-67
2021/03/27 05:55:13;;;;;;;;;;;5.30;99.90;;;;;;5093470;28;19928;-68
2021/03/27 05:57:58;;;;;;;;;;;5.30;99.90;;;;;;5093697;28;19928;-67
2021/03/27 06:00:31;;;;;;;;;;;5.30;99.90;;;;;;5093634;28;19928;-67
2021/03/27 06:03:14;;;;;;;;;;;5.30;99.90;;;;;;5092987;28;19925;-69
2021/03/27 06:05:53;;;;;;;;;;;5.30;99.90;;;;;;5094002;28;19978;-68
2021/03/27 06:08:29;;;;;;;;;;;5.40;99.90;;;;;;5093461;28;19928;-69
2021/03/27 06:11:07;;;;;;;;;;;5.40;99.90;;;;;;5093493;28;19929;-68
2021/03/27 06:13:43;;;;;;;;;;;5.40;99.90;;;;;;5093062;28;19936;-69
2021/03/27 06:16:14;;;;;;;;;;;5.40;99.90;;;;;;5093257;28;19985;-69
2021/03/27 06:18:59;;;;;;;;;;;5.40;99.90;;;;;;5093114;28;19925;-68
2021/03/27 06:21:35;;;;;;;;;;;5.40;99.90;;;;;;5093074;28;20305;-66
2021/03/27 06:24:07;;;;;;;;;;;5.40;99.90;;;;;;5092844;28;19931;-67
2021/03/27 06:26:38;;;;;;;;;;;5.40;99.90;;;;;;5093279;28;19928;-69
2021/03/27 06:29:24;;;;;;;;;;;5.40;99.90;;;;;;5092085;28;22453;-70
2021/03/27 06:32:03;;;;;;;;;;;5.40;99.90;;;;;;5092813;28;19988;-69
2021/03/27 06:34:45;;;;;;;;;;;5.40;99.90;;;;;;5093068;28;20385;-67
2021/03/27 06:37:18;;;;;;;;;;;5.40;99.90;;;;;;5092832;28;19928;-67
2021/03/27 06:39:59;;;;;;;;;;;5.60;99.90;;;;;;5092780;28;19924;-68
2021/03/27 06:42:41;;;;;;;;;;;5.60;99.90;;;;;;5092378;28;19931;-67
2021/03/27 06:45:26;;;;;;;;;;;5.70;99.90;;;;;;5093834;28;19924;-68
2021/03/27 06:48:13;;;;;;;;;;;5.80;99.90;;;;;;5092532;28;19924;-72
2021/03/27 06:50:58;;;;;;;;;;;5.90;99.90;;;;;;5092303;28;19932;-68
2021/03/27 06:53:45;;;;;;;;;;;5.90;99.90;;;;;;5091014;28;19930;-68
2021/03/27 06:56:26;;;;;;;;;;;5.90;99.90;;;;;;5094904;28;19978;-66
2021/03/27 06:59:04;;;;;;;;;;;5.90;99.90;;;;;;5093600;28;20297;-68
2021/03/27 07:01:49;;;;;;;;;;;5.90;99.90;;;;;;5095150;28;19928;-67
2021/03/27 07:04:32;;;;;;;;;;;5.90;99.90;;;;;;5091786;28;19924;-66
2021/03/27 07:07:25;;;;;;;;;;;5.90;99.90;;;;;;5092435;28;20351;-66
2021/03/27 07:10:19;;;;;;;;;;;6.00;99.90;;;;;;5044349;28;20516;-68
2021/03/27 07:12:55;;;;;;;;;;;6.00;99.90;;;;;;5091049;28;19936;-67
2021/03/27 07:15:51;;;;;;;;;;;6.00;99.90;;;;;;5091881;28;19928;-70
2021/03/27 07:18:23;;;;;;;;;;;5.90;99.90;;;;;;5010331;28;19969;-67
2021/03/27 07:21:03;;;;;;;;;;;5.60;99.90;;;;;;5075843;28;19924;-67
2021/03/27 07:23:43;;;;;;;;;;;5.40;99.90;;;;;;5091912;28;19973;-69
2021/03/27 07:26:27;;;;;;;;;;;5.40;99.90;;;;;;5092419;28;19932;-67
2021/03/27 07:29:30;;;;;;;;;;;5.40;99.90;;;;;;5092491;28;19924;-67
2021/03/27 07:32:08;;;;;;;;;;;5.20;99.90;;;;;;5092022;28;20388;-67
2021/03/27 07:34:55;;;;;;;;;;;5.20;99.90;;;;;;5092385;28;20018;-67
2021/03/27 07:37:38;;;;;;;;;;;5.10;99.90;;;;;;5085586;28;19924;-68
2021/03/27 07:40:08;;;;;;;;;;;5.00;99.90;;;;;;5091937;28;19924;-66
2021/03/27 07:42:41;;;;;;;;;;;5.10;99.90;;;;;;5089038;28;19939;-68
2021/03/27 07:45:14;;;;;;;;;;;4.40;99.90;;;;;;5095302;28;20425;-68
2021/03/27 07:47:42;;;;;;;;;;;3.70;99.90;;;;;;5096073;28;19928;-68
2021/03/27 07:50:22;;;;;;;;;;;3.60;99.90;;;;;;5095827;28;20316;-68
2021/03/27 07:53:04;;;;;;;;;;;3.60;99.90;;;;;;5095321;28;20277;-68
2021/03/27 07:55:36;;;;;;;;;;;3.60;99.90;;;;;;5095859;28;19931;-67
2021/03/27 07:58:27;;;;;;;;;;;3.50;99.90;;;;;;5095675;28;19977;-67
2021/03/27 08:01:14;;;;;;;;;;;3.50;99.90;;;;;;5095506;28;20296;-67
2021/03/27 08:03:47;;;;;;;;;;;3.50;99.90;;;;;;5089847;28;19928;-67
2021/03/27 08:06:25;;;;;;;;;;;3.50;99.90;;;;;;5096162;28;19924;-67
2021/03/27 08:08:59;;;;;;;;;;;3.50;99.90;;;;;;5095515;28;20342;-68
2021/03/27 08:11:35;;;;;;;;;;;3.50;99.90;;;;;;5095338;28;19932;-67
2021/03/27 08:14:21;;;;;;;;;;;3.50;99.90;;;;;;5095167;28;19924;-67
2021/03/27 08:16:51;;;;;;;;;;;3.60;99.90;;;;;;5095541;28;20019;-67
2021/03/27 08:19:36;;;;;;;;;;;3.70;99.90;;;;;;5095426;28;19924;-67
2021/03/27 08:22:10;;;;;;;;;;;3.70;99.90;;;;;;5094780;28;20023;-67
2021/03/27 08:24:47;;;;;;;;;;;3.80;99.90;;;;;;5095151;28;19924;-67
2021/03/27 08:27:40;;;;;;;;;;;3.70;99.90;;;;;;5095212;28;19924;-66
2021/03/27 08:30:24;;;;;;;;;;;3.70;99.90;;;;;;5095352;28;19924;-65
2021/03/27 08:33:08;;;;;;;;;;;3.50;99.90;;;;;;5063403;28;19924;-65
2021/03/27 08:36:04;;;;;;;;;;;3.50;99.90;;;;;;5095315;28;19924;-66
2021/03/27 08:38:34;;;;;;;;;;;3.40;99.90;;;;;;5058871;28;19974;-65
2021/03/27 08:41:33;;;;;;;;;;;3.60;99.90;;;;;;5095783;28;19928;-66
2021/03/27 08:44:20;;;;;;;;;;;3.60;99.90;;;;;;5094486;28;19935;-66
2021/03/27 08:47:01;;;;;;;;;;;3.70;99.90;;;;;;5068666;28;20339;-66
2021/03/27 08:49:45;;;;;;;;;;;3.80;99.90;;;;;;5094953;28;19924;-66
2021/03/27 08:52:21;;;;;;;;;;;3.80;99.90;;;;;;5093330;28;19932;-64
2021/03/27 08:54:56;;;;;;;;;;;3.90;99.90;;;;;;5094416;28;19931;-67
2021/03/27 08:57:37;;;;;;;;;;;4.10;99.90;;;;;;5094587;28;19924;-65
2021/03/27 09:00:14;;;;;;;;;;;4.20;99.90;;;;;;5073902;28;19928;-67
2021/03/27 09:02:58;;;;;;;;;;;4.40;99.90;;;;;;5073607;28;19933;-67
2021/03/27 09:05:30;;;;;;;;;;;4.40;99.90;;;;;;5074327;28;19982;-65
2021/03/27 09:08:09;;;;;;;;;;;4.60;99.90;;;;;;5073638;28;19928;-65
2021/03/27 09:11:02;;;;;;;;;;;4.70;99.90;;;;;;5074276;28;19928;-64
2021/03/27 09:13:41;;;;;;;;;;;4.90;99.90;;;;;;5048708;28;19925;-65
2021/03/27 09:16:19;;;;;;;;;;;5.10;99.90;;;;;;5073960;28;20281;-66
2021/03/27 09:18:49;;;;;;;;;;;5.20;99.90;;;;;;5074056;28;19931;-65
2021/03/27 09:21:24;;;;;;;;;;;5.10;99.90;;;;;;5091358;28;19969;-64
2021/03/27 09:23:54;;;;;;;;;;;5.00;99.90;;;;;;5093117;28;19924;-64
2021/03/27 09:26:31;;;;;;;;;;;5.00;99.90;;;;;;5093235;28;20296;-64
2021/03/27 09:29:03;;;;;;;;;;;5.40;99.90;;;;;;5094743;28;20331;-64
2021/03/27 09:31:43;;;;;;;;;;;5.70;99.90;;;;;;5094101;28;20048;-65
2021/03/27 09:34:14;;;;;;;;;;;6.10;99.90;;;;;;5093865;28;20285;-65
2021/03/27 09:36:45;;;;;;;;;;;6.60;99.90;;;;;;5093904;28;20492;-64
2021/03/27 09:39:19;;;;;;;;;;;6.90;99.90;;;;;;5094130;28;19928;-65
2021/03/27 09:41:58;;;;;;;;;;;6.80;99.90;;;;;;5093541;28;19970;-65
2021/03/27 09:44:32;;;;;;;;;;;6.80;99.90;;;;;;5093678;28;20434;-65
2021/03/27 09:47:02;;;;;;;;;;;6.90;99.90;;;;;;5094538;28;19924;-63
2021/03/27 09:49:31;;;;;;;;;;;6.80;99.90;;;;;;5093696;28;19924;-66
2021/03/27 09:52:08;;;;;;;;;;;6.80;99.90;;;;;;5095691;28;19973;-68
2021/03/27 09:54:40;;;;;;;;;;;6.60;99.90;;;;;;5095248;28;19928;-66
2021/03/27 09:57:14;;;;;;;;;;;6.60;99.90;;;;;;5092532;28;19931;-67
2021/03/27 09:59:44;;;;;;;;;;;6.60;99.90;;;;;;5093582;28;19924;-67
2021/03/27 10:02:14;;;;;;;;;;;6.60;99.90;;;;;;5093401;28;19924;-67
2021/03/27 10:04:45;;;;;;;;;;;6.30;99.90;;;;;;5093040;28;19924;-64
2021/03/27 10:07:14;;;;;;;;;;;5.30;99.90;;;;;;5092385;28;20373;-67
2021/03/27 10:09:51;;;;;;;;;;;4.60;99.90;;;;;;5092671;28;20381;-64
2021/03/27 10:12:32;;;;;;;;;;;4.10;99.90;;;;;;5092177;28;19924;-67
2021/03/27 10:15:01;;;;;;;;;;;3.80;99.90;;;;;;5092450;28;20305;-66
2021/03/27 10:17:30;;;;;;;;;;;3.50;99.90;;;;;;5091886;28;19928;-65
2021/03/27 10:20:00;;;;;;;;;;;3.50;99.90;;;;;;5091932;28;19931;-65
2021/03/27 10:22:33;;;;;;;;;;;3.40;99.90;;;;;;5092364;28;19975;-66
2021/03/27 10:25:06;;;;;;;;;;;3.60;99.90;;;;;;5091493;28;19924;-66
2021/03/27 10:27:37;;;;;;;;;;;3.60;99.90;;;;;;5092326;28;19932;-66
2021/03/27 10:30:11;;;;;;;;;;;3.70;99.90;;;;;;5092113;28;19977;-64
2021/03/27 10:32:55;;;;;;;;;;;3.80;99.90;;;;;;5092320;28;19924;-66
2021/03/27 10:35:30;;;;;;;;;;;3.80;99.90;;;;;;5092384;28;20619;-64
2021/03/27 10:37:59;;;;;;;;;;;3.70;99.90;;;;;;5092701;28;19931;-66
2021/03/27 10:40:33;;;;;;;;;;;3.70;99.90;;;;;;5092534;28;19924;-65
2021/03/27 10:43:14;;;;;;;;;;;3.60;99.90;;;;;;5091929;28;19931;-64
2021/03/27 10:45:52;;;;;;;;;;;3.50;99.90;;;;;;5092467;28;19974;-65
2021/03/27 10:48:52;;;;;;;;;;;3.60;99.90;;;;;;5092491;28;19931;-65
2021/03/27 10:51:28;;;;;;;;;;;3.60;99.90;;;;;;5092323;28;19931;-65
2021/03/27 10:54:01;;;;;;;;;;;3.50;99.90;;;;;;5091422;28;20449;-64
2021/03/27 10:56:33;;;;;;;;;;;3.70;99.90;;;;;;5092721;28;19924;-64
2021/03/27 10:59:11;;;;;;;;;;;4.00;99.90;;;;;;5092296;28;19925;-64
2021/03/27 11:01:52;;;;;;;;;;;4.50;99.90;;;;;;5092498;28;20119;-64
2021/03/27 11:04:27;;;;;;;;;;;4.80;99.90;;;;;;5090654;28;19977;-63
2021/03/27 11:07:11;;;;;;;;;;;4.80;99.90;;;;;;5091056;28;19951;-65
2021/03/27 11:09:55;;;;;;;;;;;4.70;99.90;;;;;;5091445;28;19924;-63
2021/03/27 11:12:33;;;;;;;;;;;4.80;99.90;;;;;;5091429;28;19928;-65
2021/03/27 11:15:14;;;;;;;;;;;4.90;99.90;;;;;;5092265;28;19928;-66
2021/03/27 11:18:07;;;;;;;;;;;5.30;99.90;;;;;;5092560;28;19946;-65
2021/03/27 11:20:54;;;;;;;;;;;5.50;99.90;;;;;;5055412;28;19969;-66
2021/03/27 11:23:29;;;;;;;;;;;5.60;99.90;;;;;;5090662;28;19932;-66
2021/03/27 11:26:11;;;;;;;;;;;5.60;99.90;;;;;;5092423;28;20327;-65
2021/03/27 11:28:39;;;;;;;;;;;5.90;99.90;;;;;;5091702;28;19924;-65
2021/03/27 11:31:12;;;;;;;;;;;6.50;99.90;;;;;;5091940;28;19946;-66
2021/03/27 11:33:43;;;;;;;;;;;7.00;99.90;;;;;;5091173;28;20293;-66
2021/03/27 11:36:13;;;;;;;;;;;7.20;99.90;;;;;;5091915;28;19981;-68
2021/03/27 11:38:44;;;;;;;;;;;7.30;99.90;;;;;;5091680;28;20029;-67
2021/03/27 11:41:12;;;;;;;;;;;7.00;99.90;;;;;;5091648;28;19931;-66
2021/03/27 11:43:50;;;;;;;;;;;6.50;99.90;;;;;;5091292;28;19947;-66
2021/03/27 11:46:20;;;;;;;;;;;6.50;99.90;;;;;;5091943;28;20311;-66
2021/03/27 11:48:47;;;;;;;;;;;6.90;99.90;;;;;;5092135;28;19947;-66
2021/03/27 11:51:16;;;;;;;;;;;7.30;99.90;;;;;;5091662;28;19924;-69
2021/03/27 11:53:45;;;;;;;;;;;7.70;99.90;;;;;;5091283;28;19951;-67
2021/03/27 11:56:16;;;;;;;;;;;8.00;99.90;;;;;;5091779;28;19924;-65
2021/03/27 12:01:39;;;;;;;;;;;8.20;99.90;;;;;;5091575;28;19926;-65
2021/03/27 12:04:09;;;;;;;;;;;8.10;99.90;;;;;;5091344;28;19924;-65
2021/03/27 12:06:37;;;;;;;;;;;7.70;99.90;;;;;;5091726;28;20391;-66
2021/03/27 12:09:08;;;;;;;;;;;7.80;99.90;;;;;;5091451;28;20334;-65
2021/03/27 12:11:55;;;;;;;;;;;8.20;99.90;;;;;;5091554;28;19948;-68
2021/03/27 12:14:27;;;;;;;;;;;8.70;99.90;;;;;;5086080;28;20401;-65
2021/03/27 12:17:00;;;;;;;;;;;9.00;99.90;;;;;;5091540;28;20015;-65
2021/03/27 12:19:29;;;;;;;;;;;9.10;99.90;;;;;;5091167;28;20403;-64
2021/03/27 12:21:57;;;;;;;;;;;8.80;99.90;;;;;;5091028;28;19924;-65
2021/03/27 12:24:32;;;;;;;;;;;8.90;99.90;;;;;;5091277;28;19977;-65
2021/03/27 12:27:01;;;;;;;;;;;9.30;99.90;;;;;;5091119;28;19924;-65
2021/03/27 12:29:31;;;;;;;;;;;9.60;99.90;;;;;;5094993;28;19924;-66
2021/03/27 12:32:12;;;;;;;;;;;9.80;99.90;;;;;;5094447;28;19928;-65
2021/03/27 12:34:44;;;;;;;;;;;9.50;99.90;;;;;;5060731;28;19931;-65
2021/03/27 12:37:14;;;;;;;;;;;9.70;99.90;;;;;;5094718;28;19948;-65
2021/03/27 12:39:50;;;;;;;;;;;9.50;99.90;;;;;;5095091;28;20289;-67
2021/03/27 12:42:17;;;;;;;;;;;9.30;99.90;;;;;;5094379;28;19928;-66
2021/03/27 12:44:44;;;;;;;;;;;9.20;99.90;;;;;;5094599;28;19924;-65
2021/03/27 12:47:28;;;;;;;;;;;9.20;99.90;;;;;;5094654;28;20405;-65
2021/03/27 12:50:18;;;;;;;;;;;9.50;99.90;;;;;;5094351;28;19924;-66
2021/03/27 12:52:53;;;;;;;;;;;9.50;99.90;;;;;;5078466;28;19924;-66
2021/03/27 12:55:23;;;;;;;;;;;9.40;99.90;;;;;;5094599;28;19928;-64
2021/03/27 12:57:54;;;;;;;;;;;9.00;99.90;;;;;;5094741;28;19934;-65
2021/03/27 13:00:35;;;;;;;;;;;8.80;99.90;;;;;;5094631;28;19928;-65
2021/03/27 13:03:10;;;;;;;;;;;8.60;99.90;;;;;;5059916;28;19970;-64
2021/03/27 13:05:40;;;;;;;;;;;8.30;99.90;;;;;;5094818;28;19930;-66
2021/03/27 13:08:13;;;;;;;;;;;7.80;99.90;;;;;;5094252;28;19931;-64
2021/03/27 13:10:46;;;;;;;;;;;7.70;99.90;;;;;;5094465;28;19935;-64
2021/03/27 13:13:18;;;;;;;;;;;8.10;99.90;;;;;;5093539;28;19924;-65
2021/03/27 13:15:48;;;;;;;;;;;8.70;99.90;;;;;;5093958;28;20289;-65
2021/03/27 13:18:19;;;;;;;;;;;9.30;99.90;;;;;;5094101;28;20003;-65
2021/03/27 13:20:50;;;;;;;;;;;9.60;99.90;;;;;;5094215;28;19931;-68
2021/03/27 13:23:19;;;;;;;;;;;9.80;99.90;;;;;;5093463;28;19931;-69
2021/03/27 13:25:49;;;;;;;;;;;10.20;99.90;;;;;;5093783;28;19924;-69
2021/03/27 13:28:18;;;;;;;;;;;10.40;99.90;;;;;;5093739;28;20024;-69
2021/03/27 13:30:48;;;;;;;;;;;10.40;99.90;;;;;;5093550;28;20400;-67
2021/03/27 13:33:27;;;;;;;;;;;9.90;99.90;;;;;;5093515;28;20626;-69
2021/03/27 13:36:07;;;;;;;;;;;9.30;99.90;;;;;;5093834;28;20014;-69
2021/03/27 13:38:37;;;;;;;;;;;9.00;99.90;;;;;;5093393;28;19932;-68
2021/03/27 13:41:08;;;;;;;;;;;9.30;99.90;;;;;;5093912;28;19924;-68
2021/03/27 13:43:36;;;;;;;;;;;9.60;99.90;;;;;;5093076;28;19924;-66
2021/03/27 13:46:06;;;;;;;;;;;9.80;99.90;;;;;;5093695;28;19981;-67
2021/03/27 13:48:41;;;;;;;;;;;9.70;99.90;;;;;;5094058;28;19928;-67
2021/03/27 13:51:15;;;;;;;;;;;9.70;99.90;;;;;;5093900;28;19950;-67
2021/03/27 13:53:44;;;;;;;;;;;9.60;99.90;;;;;;5093242;28;19924;-67
2021/03/27 13:56:18;;;;;;;;;;;9.80;99.90;;;;;;5093248;28;19924;-67
2021/03/27 13:58:53;;;;;;;;;;;9.80;99.90;;;;;;5092725;28;19931;-67
2021/03/27 14:01:22;;;;;;;;;;;9.90;99.90;;;;;;5093592;28;19970;-67
2021/03/27 14:03:55;;;;;;;;;;;9.50;99.90;;;;;;5093475;28;19936;-67
2021/03/27 14:06:26;;;;;;;;;;;9.50;99.90;;;;;;5093400;28;20380;-66
2021/03/27 14:09:07;;;;;;;;;;;9.40;99.90;;;;;;5093694;28;19931;-66
2021/03/27 14:11:41;;;;;;;;;;;9.70;99.90;;;;;;5090815;28;19924;-66
2021/03/27 14:14:09;;;;;;;;;;;9.90;99.90;;;;;;5093233;28;20604;-67
2021/03/27 14:16:43;;;;;;;;;;;10.00;99.90;;;;;;5093289;28;19924;-66
2021/03/27 14:19:24;;;;;;;;;;;9.90;99.90;;;;;;5093698;28;19951;-66
2021/03/27 14:21:56;;;;;;;;;;;9.90;99.90;;;;;;5093322;28;19931;-67
2021/03/27 14:24:45;;;;;;;;;;;9.70;99.90;;;;;;5092882;28;20297;-66
2021/03/27 14:27:18;;;;;;;;;;;9.50;99.90;;;;;;5093562;28;19949;-66
2021/03/27 14:29:48;;;;;;;;;;;9.40;99.90;;;;;;5093460;28;19969;-67
2021/03/27 14:32:17;;;;;;;;;;;9.50;99.90;;;;;;5092930;28;19977;-67
2021/03/27 14:34:57;;;;;;;;;;;9.60;99.90;;;;;;5092658;28;19928;-66
2021/03/27 14:37:35;;;;;;;;;;;9.60;99.90;;;;;;5093463;28;19924;-66
2021/03/27 14:40:25;;;;;;;;;;;9.70;99.90;;;;;;5092696;28;19924;-66
2021/03/27 14:43:06;;;;;;;;;;;9.70;99.90;;;;;;5062545;28;19929;-67
2021/03/27 14:45:36;;;;;;;;;;;9.80;99.90;;;;;;5092224;28;19970;-69
2021/03/27 14:48:14;;;;;;;;;;;9.90;99.90;;;;;;5092805;28;20403;-67
2021/03/27 14:50:44;;;;;;;;;;;9.80;99.90;;;;;;5091736;28;19924;-68
2021/03/27 14:53:15;;;;;;;;;;;9.70;99.90;;;;;;5092117;28;19944;-68
2021/03/27 14:55:45;;;;;;;;;;;9.60;99.90;;;;;;5092457;28;19928;-67
2021/03/27 14:58:17;;;;;;;;;;;9.50;99.90;;;;;;5092412;28;19931;-65
2021/03/27 15:01:02;;;;;;;;;;;9.20;99.90;;;;;;5092538;28;20437;-69
2021/03/27 15:03:34;;;;;;;;;;;9.30;99.90;;;;;;5091546;28;19924;-68
2021/03/27 15:06:20;;;;;;;;;;;9.50;99.90;;;;;;5092218;28;19931;-67
2021/03/27 15:08:47;;;;;;;;;;;9.40;99.90;;;;;;5092175;28;19931;-67
2021/03/27 15:11:18;;;;;;;;;;;9.40;99.90;;;;;;5092356;28;19939;-68
2021/03/27 15:13:53;;;;;;;;;;;9.30;99.90;;;;;;5092352;28;19924;-68